createdAt,value
2022-12-04T00:00:16.353Z,29.847
2022-12-04T00:05:16.429Z,29.847
2022-12-04T00:10:16.274Z,29.846
2022-12-04T00:15:25.186Z,29.843
2022-12-04T00:20:16.280Z,29.844
2022-12-04T00:25:16.319Z,29.850
2022-12-04T00:30:16.356Z,29.849
2022-12-04T00:35:16.364Z,29.844
2022-12-04T00:40:16.320Z,29.846
2022-12-04T00:45:16.430Z,29.845
2022-12-04T00:50:16.433Z,29.860
2022-12-04T00:55:16.360Z,29.870
2022-12-04T01:00:16.373Z,29.877
2022-12-04T01:05:16.343Z,29.882
2022-12-04T01:10:16.372Z,29.887
2022-12-04T01:15:16.374Z,29.889
2022-12-04T01:20:16.408Z,29.890
2022-12-04T01:25:16.404Z,29.893
2022-12-04T01:30:16.414Z,29.894
2022-12-04T01:35:16.640Z,29.896
2022-12-04T01:40:16.527Z,29.898
2022-12-04T01:45:16.586Z,29.899
2022-12-04T01:50:16.410Z,29.901
2022-12-04T01:55:16.348Z,29.904
2022-12-04T02:00:16.659Z,29.908
2022-12-04T02:05:16.520Z,29.910
2022-12-04T02:10:16.462Z,29.916
2022-12-04T02:15:16.704Z,29.921
2022-12-04T02:20:16.498Z,29.924
2022-12-04T02:25:16.839Z,29.929
2022-12-04T02:30:16.535Z,29.932
2022-12-04T02:35:16.572Z,29.936
2022-12-04T02:40:16.637Z,29.937
2022-12-04T02:45:16.564Z,29.941
2022-12-04T02:50:16.713Z,29.946
2022-12-04T02:55:16.547Z,29.949
2022-12-04T03:00:16.659Z,29.954
2022-12-04T03:05:16.579Z,29.955
2022-12-04T03:10:16.842Z,29.958
2022-12-04T03:15:16.660Z,29.962
2022-12-04T03:20:16.677Z,29.961
2022-12-04T03:25:16.727Z,29.959
2022-12-04T03:30:16.703Z,29.959
2022-12-04T03:35:16.741Z,29.959
2022-12-04T03:40:16.758Z,29.962
2022-12-04T03:45:16.767Z,29.965
2022-12-04T03:50:16.651Z,29.967
2022-12-04T03:55:16.657Z,29.966
2022-12-04T04:00:16.667Z,29.969
2022-12-04T04:05:16.692Z,29.970
2022-12-04T04:10:16.796Z,29.972
2022-12-04T04:15:16.778Z,29.972
2022-12-04T04:20:16.818Z,29.973
2022-12-04T04:25:16.742Z,29.971
2022-12-04T04:30:16.847Z,29.976
2022-12-04T04:35:16.770Z,29.974
2022-12-04T04:40:16.802Z,29.976
2022-12-04T04:45:16.910Z,29.974
2022-12-04T04:50:16.881Z,29.971
2022-12-04T04:55:16.867Z,29.971
2022-12-04T05:00:15.815Z,29.971
2022-12-04T05:05:15.884Z,29.971
2022-12-04T05:10:15.981Z,29.971
2022-12-04T05:15:16.041Z,29.974
2022-12-04T05:20:15.935Z,29.972
2022-12-04T05:25:15.963Z,29.976
2022-12-04T05:30:15.885Z,29.978
2022-12-04T05:35:16.056Z,29.974
2022-12-04T05:40:16.016Z,29.976
2022-12-04T05:45:15.949Z,29.976
2022-12-04T05:50:16.051Z,29.977
2022-12-04T05:55:15.902Z,29.980
2022-12-04T06:00:16.067Z,29.985
2022-12-04T06:05:15.982Z,29.983
2022-12-04T06:10:16.041Z,29.984
2022-12-04T06:15:16.061Z,29.986
2022-12-04T06:20:16.106Z,29.990
2022-12-04T06:25:15.983Z,29.990
2022-12-04T06:30:16.128Z,29.994
2022-12-04T06:35:16.105Z,30.001
2022-12-04T06:40:16.117Z,30.006
2022-12-04T06:45:16.032Z,30.009
2022-12-04T06:50:16.093Z,30.012
2022-12-04T06:55:16.121Z,30.013
2022-12-04T07:00:16.076Z,30.017
2022-12-04T07:05:16.310Z,30.024
2022-12-04T07:10:16.163Z,30.026
2022-12-04T07:15:16.084Z,30.027
2022-12-04T07:20:16.152Z,30.028
2022-12-04T07:25:16.216Z,30.034
2022-12-04T07:30:16.403Z,30.032
2022-12-04T07:35:16.235Z,30.029
2022-12-04T07:40:16.369Z,30.033
2022-12-04T07:45:16.187Z,30.036
2022-12-04T07:50:16.255Z,30.043
2022-12-04T07:55:21.608Z,30.044
2022-12-04T08:00:16.231Z,30.044
2022-12-04T08:05:16.296Z,30.045
2022-12-04T08:10:16.215Z,30.046
2022-12-04T08:15:16.306Z,30.048
2022-12-04T08:20:16.294Z,30.053
2022-12-04T08:25:16.213Z,30.056
2022-12-04T08:30:16.316Z,30.057
2022-12-04T08:35:16.309Z,30.055
2022-12-04T08:40:16.311Z,30.058
2022-12-04T08:45:16.258Z,30.059
2022-12-04T08:50:16.504Z,30.060
2022-12-04T08:55:16.371Z,30.064
2022-12-04T09:00:16.714Z,30.059
2022-12-04T09:05:17.441Z,30.057
2022-12-04T09:10:16.312Z,30.061
2022-12-04T09:15:16.421Z,30.056
2022-12-04T09:20:16.390Z,30.058
2022-12-04T09:25:16.548Z,30.061
2022-12-04T09:30:16.346Z,30.061
2022-12-04T09:35:16.383Z,30.063
2022-12-04T09:40:16.470Z,30.061
2022-12-04T09:45:16.369Z,30.065
2022-12-04T09:50:16.403Z,30.065
2022-12-04T09:55:16.382Z,30.067
2022-12-04T10:00:16.499Z,30.068
2022-12-04T10:05:16.539Z,30.067
2022-12-04T10:10:16.537Z,30.069
2022-12-04T10:15:16.474Z,30.072
2022-12-04T10:20:16.493Z,30.072
2022-12-04T10:25:16.535Z,30.074
2022-12-04T10:30:16.569Z,30.079
2022-12-04T10:35:16.568Z,30.085
2022-12-04T10:40:16.599Z,30.086
2022-12-04T10:45:16.564Z,30.087
2022-12-04T10:50:16.778Z,30.083
2022-12-04T10:55:16.827Z,30.088
2022-12-04T11:00:16.636Z,30.091
2022-12-04T11:05:16.690Z,30.093
2022-12-04T11:10:16.584Z,30.092
2022-12-04T11:15:16.676Z,30.093
2022-12-04T11:20:16.659Z,30.101
2022-12-04T11:25:16.763Z,30.101
2022-12-04T11:30:16.605Z,30.106
2022-12-04T11:35:16.788Z,30.106
2022-12-04T11:40:16.718Z,30.110
2022-12-04T11:45:16.759Z,30.111
2022-12-04T11:50:16.787Z,30.114
2022-12-04T11:55:16.597Z,30.113
2022-12-04T12:00:16.991Z,30.116
2022-12-04T12:05:16.715Z,30.117
2022-12-04T12:10:16.741Z,30.116
2022-12-04T12:15:16.722Z,30.119
2022-12-04T12:20:16.778Z,30.122
2022-12-04T12:25:16.788Z,30.128
2022-12-04T12:30:17.055Z,30.134
2022-12-04T12:35:16.988Z,30.134
2022-12-04T12:40:16.849Z,30.136
2022-12-04T12:45:16.878Z,30.140
2022-12-04T12:50:16.838Z,30.144
2022-12-04T12:55:16.751Z,30.144
2022-12-04T13:00:16.867Z,30.146
2022-12-04T13:05:16.853Z,30.150
2022-12-04T13:10:16.856Z,30.151
2022-12-04T13:15:16.948Z,30.154
2022-12-04T13:20:16.934Z,30.152
2022-12-04T13:25:17.209Z,30.152
2022-12-04T13:30:16.907Z,30.151
2022-12-04T13:35:16.863Z,30.152
2022-12-04T13:40:16.961Z,30.154
2022-12-04T13:45:17.054Z,30.156
2022-12-04T13:50:16.976Z,30.158
2022-12-04T13:55:17.001Z,30.159
2022-12-04T14:00:17.174Z,30.162
2022-12-04T14:05:17.087Z,30.164
2022-12-04T14:10:16.954Z,30.163
2022-12-04T14:15:17.139Z,30.161
2022-12-04T14:20:17.111Z,30.158
2022-12-04T14:25:17.188Z,30.159
2022-12-04T14:30:16.995Z,30.161
2022-12-04T14:35:17.037Z,30.160
2022-12-04T14:40:16.989Z,30.157
2022-12-04T14:45:17.060Z,30.158
2022-12-04T14:50:17.050Z,30.157
2022-12-04T14:55:17.031Z,30.157
2022-12-04T15:00:17.134Z,30.155
2022-12-04T15:05:17.111Z,30.154
2022-12-04T15:10:17.303Z,30.153
2022-12-04T15:15:17.071Z,30.151
2022-12-04T15:20:17.171Z,30.151
2022-12-04T15:25:17.201Z,30.151
2022-12-04T15:30:17.164Z,30.146
2022-12-04T15:35:17.171Z,30.147
2022-12-04T15:40:17.264Z,30.143
2022-12-04T15:45:17.184Z,30.143
2022-12-04T15:50:17.338Z,30.141
2022-12-04T15:55:17.110Z,30.142
2022-12-04T16:00:17.285Z,30.138
2022-12-04T16:05:17.168Z,30.138
2022-12-04T16:10:17.242Z,30.137
2022-12-04T16:15:17.309Z,30.139
2022-12-04T16:20:17.198Z,30.141
2022-12-04T16:25:17.265Z,30.139
2022-12-04T16:30:17.301Z,30.136
2022-12-04T16:35:17.384Z,30.135
2022-12-04T16:40:17.259Z,30.136
2022-12-04T16:45:17.217Z,30.135
2022-12-04T16:50:17.319Z,30.137
2022-12-04T16:55:17.416Z,30.131
2022-12-04T17:00:17.321Z,30.128
2022-12-04T17:05:17.371Z,30.125
2022-12-04T17:10:21.988Z,30.122
2022-12-04T17:15:17.399Z,30.121
2022-12-04T17:20:17.332Z,30.121
2022-12-04T17:25:17.485Z,30.120
2022-12-04T17:30:15.289Z,30.119
2022-12-04T17:35:15.397Z,30.120
2022-12-04T17:40:15.472Z,30.119
2022-12-04T17:45:15.802Z,30.114
2022-12-04T17:50:16.598Z,30.109
2022-12-04T17:55:15.385Z,30.110
2022-12-04T18:00:15.488Z,30.107
2022-12-04T18:05:15.481Z,30.107
2022-12-04T18:10:15.476Z,30.110
2022-12-04T18:15:15.598Z,30.111
2022-12-04T18:20:15.452Z,30.111
2022-12-04T18:25:15.605Z,30.112
2022-12-04T18:30:15.558Z,30.113
2022-12-04T18:35:15.683Z,30.106
2022-12-04T18:40:15.532Z,30.110
2022-12-04T18:45:15.700Z,30.112
2022-12-04T18:50:15.550Z,30.110
2022-12-04T18:55:15.504Z,30.114
2022-12-04T19:00:15.579Z,30.111
2022-12-04T19:05:15.888Z,30.111
2022-12-04T19:10:15.817Z,30.109
2022-12-04T19:15:15.767Z,30.112
2022-12-04T19:20:15.722Z,30.110
2022-12-04T19:25:15.703Z,30.108
2022-12-04T19:30:15.602Z,30.109
2022-12-04T19:35:15.620Z,30.114
2022-12-04T19:40:15.660Z,30.122
2022-12-04T19:45:15.866Z,30.125
2022-12-04T19:50:15.639Z,30.129
2022-12-04T19:55:15.615Z,30.133
2022-12-04T20:00:15.649Z,30.134
2022-12-04T20:05:15.754Z,30.136
2022-12-04T20:10:15.809Z,30.137
2022-12-04T20:15:15.704Z,30.140
2022-12-04T20:20:15.748Z,30.141
2022-12-04T20:25:15.852Z,30.139
2022-12-04T20:30:15.759Z,30.139
2022-12-04T20:35:15.985Z,30.140
2022-12-04T20:40:15.833Z,30.145
2022-12-04T20:45:15.751Z,30.148
2022-12-04T20:50:15.817Z,30.150
2022-12-04T20:55:15.975Z,30.148
2022-12-04T21:00:15.976Z,30.150
2022-12-04T21:05:15.964Z,30.148
2022-12-04T21:10:15.918Z,30.151
2022-12-04T21:15:15.807Z,30.155
2022-12-04T21:20:15.882Z,30.159
2022-12-04T21:25:15.939Z,30.163
2022-12-04T21:30:15.849Z,30.166
2022-12-04T21:35:16.040Z,30.160
2022-12-04T21:40:16.097Z,30.166
2022-12-04T21:45:15.960Z,30.162
2022-12-04T21:50:15.938Z,30.169
2022-12-04T21:55:15.901Z,30.170
2022-12-04T22:00:15.943Z,30.170
2022-12-04T22:05:16.138Z,30.172
2022-12-04T22:10:16.068Z,30.177
2022-12-04T22:15:16.021Z,30.178
2022-12-04T22:20:15.954Z,30.177
2022-12-04T22:25:16.037Z,30.180
2022-12-04T22:30:15.996Z,30.179
2022-12-04T22:35:16.045Z,30.176
2022-12-04T22:40:16.122Z,30.179
2022-12-04T22:45:16.066Z,30.180
2022-12-04T22:50:16.195Z,30.177
2022-12-04T22:55:16.077Z,30.179
2022-12-04T23:00:16.107Z,30.187
2022-12-04T23:05:16.220Z,30.192
2022-12-04T23:10:16.174Z,30.196
2022-12-04T23:15:16.231Z,30.203
2022-12-04T23:20:16.120Z,30.201
2022-12-04T23:25:16.290Z,30.203
2022-12-04T23:30:18.194Z,30.203
2022-12-04T23:35:16.213Z,30.197
2022-12-04T23:40:16.102Z,30.195
2022-12-04T23:45:16.180Z,30.191
2022-12-04T23:50:16.355Z,30.198
2022-12-04T23:55:16.147Z,30.194
